createdAt,value
2023-02-11T00:01:35.065Z,7.49
2023-02-11T00:05:46.621Z,7.38
2023-02-11T00:09:58.356Z,7.47
2023-02-11T00:14:10.787Z,7.49
2023-02-11T00:18:22.802Z,7.48
2023-02-11T00:22:34.678Z,7.36
2023-02-11T00:26:47.262Z,7.45
2023-02-11T00:30:59.452Z,7.43
2023-02-11T00:35:11.124Z,7.40
2023-02-11T00:39:24.153Z,7.40
2023-02-11T00:43:36.456Z,7.37
2023-02-11T00:47:48.257Z,7.45
2023-02-11T00:51:59.889Z,7.43
2023-02-11T00:56:11.511Z,7.41
2023-02-11T01:00:23.276Z,7.44
2023-02-11T01:04:34.911Z,7.46
2023-02-11T01:08:46.537Z,7.52
2023-02-11T01:12:58.228Z,7.49
2023-02-11T01:17:10.890Z,7.46
2023-02-11T01:21:22.426Z,7.44
2023-02-11T01:25:35.936Z,7.41
2023-02-11T01:29:48.744Z,7.34
2023-02-11T01:34:01.135Z,7.24
2023-02-11T01:38:18.857Z,7.22
2023-02-11T01:42:30.562Z,7.21
2023-02-11T01:46:43.506Z,7.26
2023-02-11T01:51:03.225Z,7.21
2023-02-11T01:55:33.481Z,7.21
2023-02-11T02:00:03.815Z,7.28
2023-02-11T02:04:31.710Z,7.28
2023-02-11T02:08:52.543Z,7.31
2023-02-11T02:13:04.204Z,7.21
2023-02-11T02:17:33.551Z,7.29
2023-02-11T02:22:29.346Z,7.36
2023-02-11T02:26:54.180Z,7.27
2023-02-11T02:31:27.243Z,7.22
2023-02-11T02:36:10.318Z,7.28
2023-02-11T02:40:54.319Z,7.33
2023-02-11T02:45:09.162Z,7.22
2023-02-11T02:49:20.745Z,7.27
2023-02-11T02:53:45.407Z,7.21
2023-02-11T02:58:23.738Z,7.26
2023-02-11T03:02:39.820Z,7.23
2023-02-11T03:07:12.284Z,7.26
2023-02-11T03:11:26.029Z,7.24
2023-02-11T03:15:44.911Z,7.16
2023-02-11T03:19:59.421Z,7.16
2023-02-11T03:24:17.058Z,7.14
2023-02-11T03:28:59.203Z,7.24
2023-02-11T03:33:35.660Z,7.14
2023-02-11T03:38:17.414Z,7.10
2023-02-11T03:42:35.667Z,7.13
2023-02-11T03:46:50.686Z,7.23
2023-02-11T03:51:06.518Z,7.21
2023-02-11T03:55:20.874Z,7.20
2023-02-11T03:59:32.526Z,7.21
2023-02-11T04:03:44.135Z,7.22
2023-02-11T04:07:56.016Z,7.23
2023-02-11T04:12:08.138Z,7.24
2023-02-11T04:16:19.806Z,7.15
2023-02-11T04:20:31.408Z,7.25
2023-02-11T04:24:44.118Z,7.24
2023-02-11T04:28:55.686Z,7.25
2023-02-11T04:33:07.339Z,7.33
2023-02-11T04:37:18.910Z,7.29
2023-02-11T04:41:30.512Z,7.25
2023-02-11T04:45:42.210Z,7.27
2023-02-11T04:49:53.909Z,7.27
2023-02-11T04:54:05.569Z,7.22
2023-02-11T04:58:18.334Z,7.25
2023-02-11T05:02:29.962Z,7.23
2023-02-11T05:06:41.573Z,7.18
2023-02-11T05:10:53.260Z,7.32
2023-02-11T05:15:05.556Z,7.28
2023-02-11T05:19:17.081Z,7.30
2023-02-11T05:23:28.655Z,7.21
2023-02-11T05:27:40.438Z,7.34
2023-02-11T05:31:52.578Z,7.30
2023-02-11T05:36:08.412Z,7.41
2023-02-11T05:40:20.018Z,7.38
2023-02-11T05:44:31.781Z,7.39
2023-02-11T05:48:43.508Z,7.34
2023-02-11T05:52:55.103Z,7.36
2023-02-11T05:57:06.864Z,7.37
2023-02-11T06:01:18.889Z,7.32
2023-02-11T06:05:31.416Z,7.29
2023-02-11T06:09:43.270Z,7.34
2023-02-11T06:13:54.841Z,7.31
2023-02-11T06:18:06.413Z,7.32
2023-02-11T06:22:18.027Z,7.28
2023-02-11T06:26:31.000Z,7.26
2023-02-11T06:30:42.833Z,7.26
2023-02-11T06:34:54.546Z,7.27
2023-02-11T06:39:06.626Z,7.24
2023-02-11T06:43:18.371Z,7.25
2023-02-11T06:47:29.980Z,7.30
2023-02-11T06:51:41.617Z,7.31
2023-02-11T06:55:53.251Z,7.38
2023-02-11T07:00:05.900Z,7.39
2023-02-11T07:04:17.593Z,7.37
2023-02-11T07:08:29.439Z,7.34
2023-02-11T07:12:41.325Z,7.33
2023-02-11T07:16:52.906Z,7.37
2023-02-11T07:21:06.357Z,7.34
2023-02-11T07:25:17.941Z,7.40
2023-02-11T07:29:29.811Z,7.40
2023-02-11T07:33:42.122Z,7.42
2023-02-11T07:37:53.739Z,7.37
2023-02-11T07:42:05.637Z,7.51
2023-02-11T07:46:20.400Z,7.53
2023-02-11T07:50:32.084Z,7.45
2023-02-11T07:54:43.753Z,7.53
2023-02-11T07:58:56.910Z,7.57
2023-02-11T08:03:08.540Z,7.61
2023-02-11T08:07:20.147Z,7.66
2023-02-11T08:11:31.782Z,7.71
2023-02-11T08:15:43.464Z,7.75
2023-02-11T08:19:55.066Z,7.77
2023-02-11T08:24:07.844Z,7.81
2023-02-11T08:28:19.533Z,7.72
2023-02-11T08:32:31.189Z,7.86
2023-02-11T08:36:43.464Z,7.78
2023-02-11T08:40:55.117Z,7.80
2023-02-11T08:45:07.385Z,7.92
2023-02-11T08:49:19.741Z,8.10
2023-02-11T08:53:31.310Z,8.15
2023-02-11T08:57:42.926Z,8.19
2023-02-11T09:01:54.726Z,8.33
2023-02-11T09:06:07.851Z,8.40
2023-02-11T09:10:19.662Z,8.38
2023-02-11T09:14:31.260Z,8.51
2023-02-11T09:18:44.401Z,8.60
2023-02-11T09:22:58.398Z,8.64
2023-02-11T09:27:10.035Z,8.57
2023-02-11T09:31:24.830Z,8.75
2023-02-11T09:35:36.521Z,8.79
2023-02-11T09:39:48.213Z,8.96
2023-02-11T09:44:04.647Z,8.93
2023-02-11T09:48:20.193Z,9.09
2023-02-11T09:53:07.168Z,9.18
2023-02-11T09:57:28.332Z,9.20
2023-02-11T10:01:49.852Z,9.23
2023-02-11T10:06:20.031Z,9.31
2023-02-11T10:10:47.682Z,9.40
2023-02-11T10:15:18.385Z,9.36
2023-02-11T10:19:32.991Z,9.42
2023-02-11T10:23:49.477Z,9.52
2023-02-11T10:28:10.028Z,9.42
2023-02-11T10:32:40.490Z,9.67
2023-02-11T10:36:52.254Z,9.71
2023-02-11T10:41:05.174Z,9.81
2023-02-11T10:45:41.443Z,9.90
2023-02-11T10:49:54.059Z,9.96
2023-02-11T10:54:13.602Z,9.98
2023-02-11T10:58:34.868Z,10.15
2023-02-11T11:03:24.593Z,10.36
2023-02-11T11:07:47.082Z,10.49
2023-02-11T11:12:01.031Z,10.73
2023-02-11T11:16:12.676Z,11.01
2023-02-11T11:20:29.212Z,11.06
2023-02-11T11:24:46.600Z,11.07
2023-02-11T11:29:07.882Z,11.08
2023-02-11T11:33:31.351Z,10.94
2023-02-11T11:37:44.096Z,10.92
2023-02-11T11:41:58.993Z,11.10
2023-02-11T11:46:12.216Z,11.19
2023-02-11T11:51:18.268Z,11.14
2023-02-11T11:55:45.545Z,11.14
2023-02-11T11:59:58.422Z,11.38
2023-02-11T12:04:16.013Z,11.56
2023-02-11T12:09:08.291Z,11.56
2023-02-11T12:13:23.171Z,11.83
2023-02-11T12:17:46.833Z,11.85
2023-02-11T12:22:11.043Z,12.00
2023-02-11T12:26:29.343Z,12.14
2023-02-11T12:30:44.001Z,12.30
2023-02-11T12:35:11.407Z,12.27
2023-02-11T12:39:47.823Z,12.22
2023-02-11T12:43:59.733Z,12.36
2023-02-11T12:48:17.359Z,12.41
2023-02-11T12:52:49.063Z,12.48
2023-02-11T12:57:24.287Z,12.47
2023-02-11T13:01:40.443Z,12.38
2023-02-11T13:05:57.021Z,12.32
2023-02-11T13:10:15.616Z,12.17
2023-02-11T13:14:29.642Z,12.08
2023-02-11T13:19:22.196Z,11.99
2023-02-11T13:23:52.062Z,11.83
2023-02-11T13:28:29.890Z,11.91
2023-02-11T13:32:53.639Z,11.99
2023-02-11T13:37:05.298Z,12.05
2023-02-11T13:41:24.733Z,12.01
2023-02-11T13:45:39.999Z,11.82
2023-02-11T13:49:53.478Z,11.83
2023-02-11T13:54:07.502Z,11.76
2023-02-11T13:58:28.328Z,11.75
2023-02-11T14:02:58.484Z,11.64
2023-02-11T14:07:52.229Z,11.65
2023-02-11T14:12:26.211Z,11.59
2023-02-11T14:17:00.412Z,11.64
2023-02-11T14:21:19.177Z,11.56
2023-02-11T14:25:31.248Z,11.56
2023-02-11T14:29:58.157Z,11.70
2023-02-11T14:34:18.918Z,11.85
2023-02-11T14:38:58.541Z,11.89
2023-02-11T14:43:18.521Z,11.81
2023-02-11T14:47:43.050Z,11.90
2023-02-11T14:52:00.302Z,11.87
2023-02-11T14:56:21.842Z,11.85
2023-02-11T15:00:33.746Z,11.85
2023-02-11T15:04:45.425Z,11.81
2023-02-11T15:09:27.948Z,11.83
2023-02-11T15:13:47.455Z,11.62
2023-02-11T15:18:03.364Z,11.67
2023-02-11T15:22:22.245Z,11.66
2023-02-11T15:26:33.972Z,11.68
2023-02-11T16:17:59.735Z,10.46
2023-02-11T16:22:17.007Z,10.29
2023-02-11T16:26:36.389Z,10.27
2023-02-11T16:30:53.019Z,10.13
2023-02-11T16:35:11.525Z,10.07
2023-02-11T16:39:23.170Z,9.94
2023-02-11T16:43:34.700Z,9.89
2023-02-11T16:47:46.469Z,9.78
2023-02-11T16:52:05.438Z,9.74
2023-02-11T16:56:18.295Z,9.67
2023-02-11T17:00:30.044Z,9.55
2023-02-11T17:04:41.866Z,9.25
2023-02-11T17:08:53.732Z,9.40
2023-02-11T17:13:05.280Z,9.30
2023-02-11T17:17:17.447Z,9.13
2023-02-11T17:21:31.353Z,9.09
2023-02-11T17:25:42.972Z,9.01
2023-02-11T17:29:54.648Z,8.77
2023-02-11T17:34:06.837Z,8.60
2023-02-11T17:38:18.535Z,8.64
2023-02-11T17:42:31.240Z,8.61
2023-02-11T17:47:04.786Z,8.71
2023-02-11T17:51:34.545Z,8.63
2023-02-11T17:55:46.076Z,8.63
2023-02-11T17:59:57.809Z,8.64
2023-02-11T18:04:14.046Z,8.65
2023-02-11T18:08:25.568Z,8.64
2023-02-11T18:12:37.180Z,8.67
2023-02-11T18:16:52.314Z,8.78
2023-02-11T18:21:08.394Z,8.85
2023-02-11T18:25:20.066Z,8.91
2023-02-11T18:29:31.512Z,8.89
2023-02-11T18:33:43.234Z,8.98
2023-02-11T18:37:54.772Z,8.98
2023-02-11T18:42:06.303Z,9.01
2023-02-11T18:46:19.182Z,8.90
2023-02-11T18:50:31.006Z,9.07
2023-02-11T18:54:42.563Z,9.12
2023-02-11T18:58:56.113Z,9.07
2023-02-11T19:03:29.596Z,9.17
2023-02-11T19:07:41.840Z,9.17
2023-02-11T19:11:57.806Z,9.20
2023-02-11T19:16:11.459Z,9.19
2023-02-11T19:20:23.203Z,9.23
2023-02-11T19:24:35.630Z,9.27
2023-02-11T19:28:47.173Z,9.22
2023-02-11T19:32:58.709Z,9.16
2023-02-11T19:37:12.542Z,9.14
2023-02-11T19:41:24.192Z,9.26
2023-02-11T19:45:37.507Z,9.24
2023-02-11T19:49:48.949Z,9.24
2023-02-11T19:54:00.909Z,9.26
2023-02-11T19:58:12.827Z,9.31
2023-02-11T20:02:24.630Z,9.32
2023-02-11T20:06:36.287Z,9.32
2023-02-11T20:10:48.144Z,9.25
2023-02-11T20:14:59.629Z,9.29
2023-02-11T20:19:16.697Z,9.27
2023-02-11T20:23:29.725Z,9.26
2023-02-11T20:27:41.624Z,9.21
2023-02-11T20:31:54.018Z,9.28
2023-02-11T20:36:12.523Z,9.25
2023-02-11T20:40:24.019Z,9.22
2023-02-11T20:44:36.719Z,9.19
2023-02-11T20:48:48.751Z,9.16
2023-02-11T20:53:00.256Z,9.15
2023-02-11T20:57:12.038Z,9.15
2023-02-11T21:01:25.094Z,9.15
2023-02-11T21:05:36.750Z,9.15
2023-02-11T21:09:48.280Z,9.15
2023-02-11T21:14:00.125Z,9.15
2023-02-11T21:18:11.738Z,9.12
2023-02-11T21:22:23.595Z,9.07
2023-02-11T21:26:35.969Z,9.16
2023-02-11T21:30:50.593Z,9.18
2023-02-11T21:35:02.529Z,9.14
2023-02-11T21:39:14.239Z,9.15
2023-02-11T21:43:25.800Z,8.98
2023-02-11T21:48:02.234Z,9.17
2023-02-11T21:52:13.673Z,9.12
2023-02-11T21:56:28.696Z,9.10
2023-02-11T22:00:40.391Z,9.11
2023-02-11T22:04:51.974Z,9.06
2023-02-11T22:09:09.824Z,9.06
2023-02-11T22:13:21.358Z,9.03
2023-02-11T22:17:33.746Z,9.01
2023-02-11T22:21:45.331Z,8.99
2023-02-11T22:25:59.164Z,8.94
2023-02-11T22:30:11.589Z,8.87
2023-02-11T22:34:23.618Z,9.01
2023-02-11T22:38:35.657Z,8.97
2023-02-11T22:42:47.496Z,8.94
2023-02-11T22:46:59.089Z,9.05
2023-02-11T22:51:14.187Z,9.04
2023-02-11T22:55:26.050Z,8.94
2023-02-11T22:59:39.672Z,9.04
2023-02-11T23:03:51.355Z,9.04
2023-02-11T23:08:02.982Z,9.01
2023-02-11T23:12:14.549Z,9.06
2023-02-11T23:16:32.285Z,8.98
2023-02-11T23:20:44.332Z,8.96
2023-02-11T23:24:55.916Z,8.98
2023-02-11T23:29:07.923Z,9.01
2023-02-11T23:33:19.720Z,8.95
2023-02-11T23:37:31.304Z,8.94
2023-02-11T23:41:42.884Z,9.01
2023-02-11T23:45:54.833Z,9.06
2023-02-11T23:50:10.147Z,9.04
2023-02-11T23:54:22.023Z,8.95
2023-02-11T23:58:33.559Z,9.00
